Time;durP1;ratioP1;P1;durP2;ratioP2;P2;SDS_P1;SDS_P2;PMS_P1;PMS_P2;Temp;Humidity;BMP_temperature;BMP_pressure;BME280_temperature;BME280_humidity;BME280_pressure;Samples;Min_cycle;Max_cycle;Signal;HPM_P1;HPM_P2
2022/11/04 00:01:39;;;;;;;12.68;2.60;;;;;;;16.34;66.66;99818.88;4994529;28;20061;-69
2022/11/04 00:04:07;;;;;;;11.90;2.80;;;;;;;16.33;65.75;99822.84;5007539;28;20059;-63
2022/11/04 00:06:35;;;;;;;12.60;2.60;;;;;;;16.39;66.29;99821.31;4987764;28;20054;-63
2022/11/04 00:09:05;;;;;;;15.20;2.92;;;;;;;16.41;66.30;99810.66;5010223;28;20069;-63
2022/11/04 00:14:18;;;;;;;11.55;2.90;;;;;;;16.35;66.39;99803.00;4993430;28;20046;-63
2022/11/04 00:28:41;;;;;;;12.80;2.72;;;;;;;16.20;66.24;99787.28;4997881;28;20441;-65
2022/11/04 00:30:38;;;;;;;15.63;3.00;;;;;;;16.14;65.64;99781.25;5004985;28;20043;-63
2022/11/04 00:33:26;;;;;;;14.48;3.17;;;;;;;16.23;65.86;99790.09;4997422;28;20059;-63
2022/11/04 00:35:55;;;;;;;14.82;2.90;;;;;;;16.09;66.52;99780.75;5010487;28;20050;-70
2022/11/04 00:38:24;;;;;;;14.02;2.67;;;;;;;16.12;67.33;99783.59;4999055;28;20058;-63
2022/11/04 00:40:51;;;;;;;14.30;2.92;;;;;;;16.19;66.31;99777.34;4998292;28;20417;-64
2022/11/04 00:43:19;;;;;;;12.65;3.15;;;;;;;16.20;66.56;99776.16;4987341;28;20057;-63
2022/11/04 00:45:46;;;;;;;14.15;3.70;;;;;;;16.19;66.37;99774.56;4987633;28;20426;-62
2022/11/04 00:48:13;;;;;;;10.93;2.78;;;;;;;16.23;66.58;99767.88;5013414;28;20046;-61
2022/11/04 00:50:41;;;;;;;12.15;2.55;;;;;;;16.31;67.41;99782.69;4997926;28;20508;-63
2022/11/04 00:53:08;;;;;;;12.32;2.42;;;;;;;16.39;66.28;99767.72;5004993;28;20061;-64
2022/11/04 00:55:36;;;;;;;13.13;2.50;;;;;;;16.26;67.10;99778.25;5015700;28;20409;-63
2022/11/04 00:58:03;;;;;;;18.00;3.22;;;;;;;16.21;66.79;99767.47;5018176;28;20053;-63
2022/11/04 01:00:30;;;;;;;11.50;2.65;;;;;;;16.29;66.46;99773.91;5016663;28;20076;-63
2022/11/04 01:02:59;;;;;;;14.75;2.80;;;;;;;16.11;66.44;99767.31;5014869;28;20061;-63
2022/11/04 01:05:26;;;;;;;15.85;3.17;;;;;;;16.03;66.76;99766.38;5017249;28;20057;-63
2022/11/04 01:07:53;;;;;;;14.15;2.60;;;;;;;16.00;66.81;99758.00;5016793;28;20061;-64
2022/11/04 01:10:21;;;;;;;10.65;2.30;;;;;;;16.14;67.06;99753.47;5017381;28;20046;-63
2022/11/04 01:12:51;;;;;;;12.60;2.80;;;;;;;16.14;67.14;99750.69;5017211;28;20058;-62
2022/11/04 01:15:18;;;;;;;14.30;3.28;;;;;;;16.16;66.82;99750.31;4999726;28;20053;-63
2022/11/04 01:17:45;;;;;;;13.32;2.60;;;;;;;16.16;66.56;99747.53;4998992;28;20046;-64
2022/11/04 01:20:13;;;;;;;12.20;2.50;;;;;;;16.22;67.09;99751.59;5016083;28;20041;-71
2022/11/04 01:22:40;;;;;;;14.68;2.90;;;;;;;16.19;66.58;99747.59;5016040;28;20061;-70
2022/11/04 01:25:08;;;;;;;9.90;2.08;;;;;;;16.34;66.72;99735.50;5017570;28;20050;-70
2022/11/04 01:27:36;;;;;;;14.80;2.40;;;;;;;16.15;66.61;99743.94;5016945;28;20058;-63
2022/11/04 01:30:04;;;;;;;12.38;2.60;;;;;;;16.31;66.82;99743.78;5017091;28;20069;-63
2022/11/04 01:32:31;;;;;;;7.82;2.05;;;;;;;16.27;67.41;99742.91;5016429;28;20064;-63
2022/11/04 01:34:58;;;;;;;13.23;2.85;;;;;;;16.13;67.83;99739.94;4999667;28;20053;-63
2022/11/04 01:37:26;;;;;;;15.60;2.70;;;;;;;15.84;67.94;99741.47;5016041;28;20050;-69
2022/11/04 01:39:53;;;;;;;14.98;2.28;;;;;;;15.97;67.38;99734.53;4999929;28;20061;-70
2022/11/04 01:42:21;;;;;;;12.43;2.17;;;;;;;16.04;67.52;99722.75;5016058;28;20535;-70
2022/11/04 01:44:53;;;;;;;11.48;2.35;;;;;;;16.08;67.19;99732.72;5015162;28;20560;-70
2022/11/04 01:47:39;;;;;;;15.90;2.47;;;;;;;16.06;67.61;99740.63;4995302;28;20056;-70
2022/11/04 01:50:13;;;;;;;11.63;2.20;;;;;;;16.00;65.80;99744.91;5016382;28;20525;-71
2022/11/04 01:52:50;;;;;;;10.93;1.80;;;;;;;15.95;66.08;99738.88;5013851;28;20061;-70
2022/11/04 01:55:31;;;;;;;11.20;2.38;;;;;;;16.12;67.12;99743.91;5015296;28;20076;-69
2022/11/04 01:58:04;;;;;;;11.57;2.42;;;;;;;16.16;66.46;99728.09;5016813;28;20401;-70
2022/11/04 02:00:32;;;;;;;13.95;2.70;;;;;;;16.22;66.68;99732.13;5014914;28;20050;-70
2022/11/04 02:03:03;;;;;;;11.30;2.13;;;;;;;16.17;66.61;99711.03;4998335;28;20062;-70
2022/11/04 02:05:31;;;;;;;13.27;2.90;;;;;;;15.93;66.75;99716.22;4997890;28;20054;-70
2022/11/04 02:08:01;;;;;;;11.77;2.17;;;;;;;15.94;67.76;99717.81;4997683;28;20054;-70
2022/11/04 02:10:29;;;;;;;12.60;2.03;;;;;;;15.83;67.53;99728.75;4998878;28;20065;-70
2022/11/04 02:12:59;;;;;;;10.30;2.63;;;;;;;16.14;67.36;99728.47;4998303;28;20065;-70
2022/11/04 02:15:44;;;;;;;11.88;2.10;;;;;;;16.24;67.19;99721.44;5016134;28;20488;-70
2022/11/04 02:18:15;;;;;;;9.90;2.20;;;;;;;16.12;66.46;99714.16;5013611;28;20056;-71
2022/11/04 02:21:05;;;;;;;9.93;2.03;;;;;;;16.20;66.54;99695.56;4981751;28;20049;-71
2022/11/04 02:23:58;;;;;;;11.70;1.85;;;;;;;16.04;66.62;99701.31;4998392;28;20417;-70
2022/11/04 02:27:13;;;;;;;9.57;1.98;;;;;;;16.13;66.94;99710.19;4997535;28;20053;-65
2022/11/04 02:29:42;;;;;;;11.52;2.03;;;;;;;16.07;65.75;99700.56;4936383;29;20059;-71
2022/11/04 02:32:16;;;;;;;10.88;2.10;;;;;;;16.14;66.65;99706.25;4906463;29;20052;-70
2022/11/04 02:34:52;;;;;;;8.50;1.60;;;;;;;16.09;67.02;99714.09;4975686;28;20062;-69
2022/11/04 02:37:23;;;;;;;14.77;2.58;;;;;;;15.97;67.34;99717.88;5004774;28;20059;-69
2022/11/04 02:40:09;;;;;;;9.95;2.35;;;;;;;16.00;67.63;99719.09;4980759;28;20061;-70
2022/11/04 02:42:41;;;;;;;11.05;2.00;;;;;;;16.01;67.78;99715.13;4992392;28;20057;-70
2022/11/04 02:45:21;;;;;;;8.27;1.80;;;;;;;16.02;67.63;99719.53;4982891;28;20405;-71
2022/11/04 02:47:53;;;;;;;14.57;2.63;;;;;;;15.92;67.79;99709.06;5016315;28;20042;-71
2022/11/04 02:50:31;;;;;;;8.80;1.98;;;;;;;16.08;67.11;99704.94;5003457;28;20052;-70
2022/11/04 02:53:09;;;;;;;11.20;2.42;;;;;;;15.98;66.71;99696.44;4997405;28;20057;-70
2022/11/04 02:55:41;;;;;;;10.98;2.08;;;;;;;15.97;67.29;99692.09;5014383;28;20057;-70
2022/11/04 02:58:22;;;;;;;6.45;1.70;;;;;;;15.95;68.19;99692.47;4983272;28;20050;-71
2022/11/04 03:00:52;;;;;;;11.93;2.08;;;;;;;15.83;67.94;99691.88;5008705;28;20057;-70
2022/11/04 03:03:23;;;;;;;8.82;1.77;;;;;;;15.84;67.70;99694.25;4982486;28;20050;-71
2022/11/04 03:05:52;;;;;;;12.73;2.65;;;;;;;16.03;67.33;99696.94;4998003;28;20351;-70
2022/11/04 03:08:34;;;;;;;15.77;3.03;;;;;;;16.09;67.04;99691.88;4998686;28;20058;-70
2022/11/04 03:11:05;;;;;;;10.30;1.98;;;;;;;16.17;67.33;99683.25;5014536;28;20135;-70
2022/11/04 03:13:43;;;;;;;11.93;1.83;;;;;;;16.11;66.05;99683.97;4998109;28;20078;-70
2022/11/04 03:16:14;;;;;;;13.27;2.63;;;;;;;16.16;66.94;99683.63;4993766;28;20058;-71
2022/11/04 03:19:10;;;;;;;9.95;1.90;;;;;;;16.14;67.22;99672.09;4998365;28;20058;-70
2022/11/04 03:21:40;;;;;;;12.90;2.45;;;;;;;16.13;67.28;99662.94;5014764;28;20378;-70
2022/11/04 03:24:08;;;;;;;;;;;;;;;16.12;66.53;99660.56;5016017;28;20053;-69
2022/11/04 03:26:50;;;;;;;9.95;2.17;;;;;;;16.09;66.85;99661.31;5009189;28;19922;-70
2022/11/04 03:29:28;;;;;;;13.35;2.00;;;;;;;16.14;66.72;99660.97;5014254;28;20050;-70
2022/11/04 03:32:13;;;;;;;8.80;1.65;;;;;;;16.10;67.13;99657.34;4997539;28;20057;-70
2022/11/04 03:34:41;;;;;;;8.05;1.98;;;;;;;16.35;67.31;99658.50;5014433;28;20383;-69
2022/11/04 03:37:09;;;;;;;11.52;2.10;;;;;;;16.33;66.17;99647.75;5012833;28;20049;-70
2022/11/04 03:39:37;;;;;;;10.27;1.88;;;;;;;16.26;66.14;99644.06;5015352;28;20057;-70
2022/11/04 03:42:18;;;;;;;15.30;2.20;;;;;;;16.28;66.56;99655.63;4997079;28;20077;-69
2022/11/04 03:44:52;;;;;;;10.90;1.65;;;;;;;16.10;66.35;99644.25;4999636;28;20045;-69
2022/11/04 03:47:22;;;;;;;7.68;2.00;;;;;;;16.23;66.25;99642.06;5007480;28;20117;-70
2022/11/04 03:49:50;;;;;;;;;;;;;;;16.12;66.83;99644.69;5012059;28;20061;-69
2022/11/04 03:52:18;;;;;;;8.30;1.60;;;;;;;16.12;66.40;99641.09;5013640;28;19952;-69
2022/11/04 03:54:46;;;;;;;9.20;1.98;;;;;;;15.98;66.15;99641.72;4973797;28;20050;-68
2022/11/04 03:57:16;;;;;;;7.25;1.77;;;;;;;16.05;66.74;99650.16;4989582;28;20042;-71
2022/11/04 04:00:10;;;;;;;7.15;1.60;;;;;;;16.00;66.32;99642.13;4998406;28;20073;-70
2022/11/04 04:02:56;;;;;;;8.82;1.70;;;;;;;15.79;66.75;99645.38;4997848;28;20062;-70
2022/11/04 04:05:28;;;;;;;9.43;2.13;;;;;;;15.88;66.84;99659.03;4997024;28;20047;-70
2022/11/04 04:08:15;;;;;;;7.75;1.77;;;;;;;15.62;67.69;99668.13;4960895;28;20058;-70
2022/11/04 04:10:45;;;;;;;8.13;1.65;;;;;;;15.87;67.48;99662.16;4996679;28;20043;-69
2022/11/04 04:13:45;;;;;;;7.15;1.58;;;;;;;16.01;67.46;99656.81;4998860;28;20058;-70
2022/11/04 04:16:36;;;;;;;7.13;1.65;;;;;;;16.01;66.55;99654.03;4965925;28;20054;-70
2022/11/04 04:19:05;;;;;;;10.30;2.10;;;;;;;15.86;66.65;99649.47;4982010;28;20057;-71
2022/11/04 04:21:41;;;;;;;7.90;1.90;;;;;;;15.91;67.11;99651.91;4965158;28;20050;-70
2022/11/04 04:29:43;;;;;;;9.02;1.58;;;;;;;15.97;67.23;99656.75;4984320;28;20061;-71
2022/11/04 04:32:11;;;;;;;9.68;1.98;;;;;;;16.15;66.07;99659.78;4993431;28;20050;-70
2022/11/04 04:34:39;;;;;;;8.50;1.52;;;;;;;16.17;66.41;99663.00;4948820;28;20062;-70
2022/11/04 04:37:19;;;;;;;6.22;1.02;;;;;;;16.23;66.59;99667.06;4979075;28;20047;-69
2022/11/04 04:45:30;;;;;;;8.20;1.35;;;;;;;16.08;66.34;99671.63;4983443;28;20042;-69
2022/11/04 04:47:58;;;;;;;5.93;1.33;;;;;;;16.11;66.83;99658.97;4965295;28;20061;-62
2022/11/04 04:50:28;;;;;;;7.57;1.40;;;;;;;15.99;66.47;99665.53;4964694;28;20525;-63
2022/11/04 04:52:57;;;;;;;8.75;1.60;;;;;;;15.91;67.02;99663.81;4997665;28;20058;-63
2022/11/04 04:55:24;;;;;;;8.50;1.40;;;;;;;16.10;67.00;99671.22;4996926;28;20050;-63
2022/11/04 04:57:51;;;;;;;8.68;1.67;;;;;;;16.07;66.98;99672.00;4998205;28;20058;-63
2022/11/04 05:00:20;;;;;;;7.70;1.52;;;;;;;16.04;65.86;99675.53;4996671;28;20061;-63
2022/11/04 05:02:47;;;;;;;10.60;1.85;;;;;;;16.18;66.15;99670.16;4996316;28;20050;-62
2022/11/04 05:05:15;;;;;;;7.10;1.48;;;;;;;16.11;66.03;99661.75;4996733;28;20425;-63
2022/11/04 05:07:47;;;;;;;10.40;1.92;;;;;;;15.86;65.99;99657.78;4996223;28;20050;-64
2022/11/04 05:10:16;;;;;;;7.93;1.67;;;;;;;16.08;66.89;99659.69;4990231;28;20046;-63
2022/11/04 05:15:30;;;;;;;5.60;1.25;;;;;;;16.02;67.10;99666.75;5011969;28;20066;-63
2022/11/04 05:17:59;;;;;;;7.20;1.55;;;;;;;16.08;66.18;99662.47;4998323;28;20050;-62
2022/11/04 05:20:29;;;;;;;6.15;1.50;;;;;;;15.94;66.52;99674.19;4997710;28;20051;-62
2022/11/04 05:22:56;;;;;;;5.20;1.40;;;;;;;15.90;66.31;99680.88;4996483;28;20410;-62
2022/11/04 05:25:24;;;;;;;5.93;1.42;;;;;;;15.99;66.46;99676.63;4996230;28;20053;-63
2022/11/04 05:27:51;;;;;;;5.55;1.20;;;;;;;15.87;66.08;99673.25;4997730;28;20058;-62
2022/11/04 05:30:18;;;;;;;7.82;1.50;;;;;;;15.90;66.76;99672.53;4997032;28;20055;-62
2022/11/04 05:32:46;;;;;;;9.60;1.85;;;;;;;15.97;66.02;99667.09;4997527;28;20056;-63
2022/11/04 05:35:13;;;;;;;7.25;1.55;;;;;;;16.01;66.37;99670.69;4997225;28;20118;-62
2022/11/04 05:37:40;;;;;;;7.22;1.65;;;;;;;16.05;66.27;99677.94;4997527;28;20047;-62
2022/11/04 05:40:08;;;;;;;12.68;1.83;;;;;;;16.02;65.89;99670.34;4997639;28;20055;-70
2022/11/04 05:42:36;;;;;;;9.05;1.52;;;;;;;15.96;66.43;99677.38;4997086;28;20058;-70
2022/11/04 05:45:03;;;;;;;8.73;1.45;;;;;;;15.87;66.75;99676.03;4996729;28;20050;-70
2022/11/04 05:47:31;;;;;;;7.70;1.40;;;;;;;16.03;66.27;99683.06;5011062;28;20054;-70
2022/11/04 05:49:58;;;;;;;6.13;1.10;;;;;;;16.00;65.72;99688.56;4997557;28;20057;-70
2022/11/04 05:52:26;;;;;;;6.93;1.40;;;;;;;15.89;66.41;99696.72;4997424;28;20061;-69
2022/11/04 05:54:53;;;;;;;10.75;1.50;;;;;;;15.85;66.52;99698.63;5016557;28;20808;-70
2022/11/04 05:57:20;;;;;;;11.63;1.30;;;;;;;15.80;66.82;99701.72;5014651;28;20532;-71
2022/11/04 05:59:48;;;;;;;6.50;1.65;;;;;;;15.81;67.37;99699.75;5012339;28;20413;-71
2022/11/04 06:02:15;;;;;;;9.45;1.75;;;;;;;15.77;66.52;99705.25;5007676;28;20060;-70
2022/11/04 06:04:42;;;;;;;6.65;1.60;;;;;;;15.88;66.77;99711.78;4981639;28;20505;-70
2022/11/04 06:07:10;;;;;;;9.38;1.48;;;;;;;15.90;66.93;99709.41;5016103;28;20054;-69
2022/11/04 06:09:38;;;;;;;7.30;1.38;;;;;;;15.88;65.97;99713.75;4999207;28;20041;-70
2022/11/04 06:12:09;;;;;;;8.55;1.48;;;;;;;16.08;66.06;99709.69;4998577;28;20054;-70
2022/11/04 06:14:37;;;;;;;9.15;1.85;;;;;;;15.95;66.22;99719.44;5016327;28;20065;-70
2022/11/04 06:17:04;;;;;;;8.85;1.48;;;;;;;16.07;66.12;99724.78;5015175;28;20046;-70
2022/11/04 06:19:31;;;;;;;10.82;2.03;;;;;;;15.91;65.88;99726.91;5016664;28;20050;-70
2022/11/04 06:21:59;;;;;;;9.55;1.63;;;;;;;15.89;66.39;99738.38;5014930;28;20045;-71
2022/11/04 06:24:26;;;;;;;6.90;1.60;;;;;;;15.97;66.36;99744.84;4982226;28;20080;-70
2022/11/04 06:26:53;;;;;;;8.50;1.88;;;;;;;15.94;66.70;99742.81;5015860;28;20398;-71
2022/11/04 06:29:21;;;;;;;7.25;1.50;;;;;;;16.09;66.02;99739.09;5016367;28;20489;-71
2022/11/04 06:31:48;;;;;;;7.70;1.80;;;;;;;15.89;66.07;99737.56;5015282;28;20046;-70
2022/11/04 06:34:16;;;;;;;9.10;1.63;;;;;;;15.90;66.59;99734.41;5014703;28;20050;-69
2022/11/04 06:36:44;;;;;;;9.48;1.52;;;;;;;15.91;66.33;99744.38;4977386;28;20054;-70
2022/11/04 06:39:11;;;;;;;10.57;1.85;;;;;;;16.03;66.58;99746.94;4998532;28;20061;-63
2022/11/04 06:41:39;;;;;;;7.18;1.88;;;;;;;15.97;65.88;99737.31;5015411;28;20046;-63
2022/11/04 06:44:09;;;;;;;6.13;1.60;;;;;;;15.89;65.83;99741.16;5015919;28;20042;-63
2022/11/04 06:46:38;;;;;;;10.65;1.70;;;;;;;15.95;66.50;99738.88;5012935;28;20064;-63
2022/11/04 06:49:09;;;;;;;11.48;2.25;;;;;;;16.08;65.95;99738.28;4997520;28;20056;-63
2022/11/04 06:51:36;;;;;;;9.80;1.92;;;;;;;16.01;66.56;99742.91;5013288;28;20062;-63
2022/11/04 06:54:04;;;;;;;6.13;1.50;;;;;;;16.16;65.98;99741.97;5015549;28;20062;-64
2022/11/04 06:56:31;;;;;;;11.07;2.42;;;;;;;16.26;65.91;99744.09;5015161;28;20061;-64
2022/11/04 06:58:58;;;;;;;9.45;1.70;;;;;;;16.22;65.47;99746.03;4998367;28;20048;-64
2022/11/04 07:01:27;;;;;;;6.25;1.70;;;;;;;15.96;65.56;99751.56;5013550;28;20060;-64
2022/11/04 07:03:57;;;;;;;7.25;1.60;;;;;;;16.10;66.07;99752.59;5014474;28;20544;-63
2022/11/04 07:06:26;;;;;;;10.88;1.80;;;;;;;15.99;66.24;99753.63;5010756;28;20069;-63
2022/11/04 07:08:56;;;;;;;14.07;1.50;;;;;;;16.06;65.75;99753.72;4988932;28;20061;-64
2022/11/04 07:11:24;;;;;;;10.27;2.30;;;;;;;15.97;66.76;99761.53;4997378;28;20050;-62
2022/11/04 07:13:51;;;;;;;11.18;1.95;;;;;;;15.91;65.62;99765.78;5015370;28;20042;-63
2022/11/04 07:16:19;;;;;;;9.68;1.77;;;;;;;16.04;66.79;99769.97;5011544;28;20501;-63
2022/11/04 07:18:48;;;;;;;13.23;2.03;;;;;;;15.99;66.07;99776.63;5005668;28;20517;-63
2022/11/04 07:21:15;;;;;;;11.43;1.65;;;;;;;16.09;66.43;99778.78;4994545;28;20041;-64
2022/11/04 07:23:42;;;;;;;9.38;1.90;;;;;;;16.04;65.95;99781.09;5005537;28;20060;-65
2022/11/04 07:26:11;;;;;;;24.95;10.07;;;;;;;16.27;65.77;99790.16;5013184;28;20053;-65
2022/11/04 07:28:39;;;;;;;37.97;14.55;;;;;;;16.38;65.74;99791.94;5014154;28;20034;-67
2022/11/04 07:31:10;;;;;;;32.40;13.40;;;;;;;16.39;66.38;99798.28;4990600;28;20464;-65
2022/11/04 07:33:37;;;;;;;27.20;10.77;;;;;;;16.17;66.96;99793.59;5002399;28;20053;-66
2022/11/04 07:36:06;;;;;;;20.85;8.38;;;;;;;16.22;66.93;99801.59;5006666;28;20053;-65
2022/11/04 07:38:34;;;;;;;20.27;6.20;;;;;;;16.47;65.63;99805.59;5008402;28;20517;-66
2022/11/04 07:41:01;;;;;;;15.50;2.58;;;;;;;16.48;61.83;99816.34;5001367;28;20528;-65
2022/11/04 07:43:29;;;;;;;12.00;3.13;;;;;;;16.61;62.62;99825.28;4991891;28;20094;-65
2022/11/04 07:46:05;;;;;;;9.90;2.33;;;;;;;16.43;62.49;99821.38;5005046;28;20053;-65
2022/11/04 07:48:33;;;;;;;12.15;2.30;;;;;;;16.16;62.31;99826.13;4994576;28;20053;-67
2022/11/04 07:51:01;;;;;;;21.73;2.80;;;;;;;15.99;63.82;99826.63;4994264;28;20185;-66
2022/11/04 07:53:30;;;;;;;11.88;2.63;;;;;;;16.41;62.48;99843.19;5001029;28;20068;-66
2022/11/04 07:55:57;;;;;;;17.25;2.88;;;;;;;16.34;62.26;99843.06;5001396;28;20049;-64
2022/11/04 07:58:25;;;;;;;12.57;2.35;;;;;;;16.22;62.14;99846.06;5011052;28;20050;-65
2022/11/04 08:01:08;;;;;;;10.68;2.42;;;;;;;16.07;62.83;99841.44;4979489;28;20046;-65
2022/11/04 08:03:35;;;;;;;16.10;2.50;;;;;;;16.02;62.76;99848.13;5008635;28;20481;-66
2022/11/04 08:06:05;;;;;;;16.23;3.40;;;;;;;16.23;62.34;99856.78;5012236;28;20041;-65
2022/11/04 08:08:33;;;;;;;16.23;4.32;;;;;;;16.23;62.04;99856.00;4997885;28;20058;-65
2022/11/04 08:11:27;;;;;;;11.43;2.30;;;;;;;16.28;61.97;99864.84;4995951;28;20042;-65
2022/11/04 08:13:55;;;;;;;17.15;2.78;;;;;;;16.41;61.92;99865.44;5018482;28;20066;-66
2022/11/04 08:16:24;;;;;;;12.95;2.38;;;;;;;16.09;61.90;99875.22;5008966;28;20054;-65
2022/11/04 08:19:00;;;;;;;11.50;2.13;;;;;;;15.68;62.39;99882.41;4996052;28;20049;-66
2022/11/04 08:21:28;;;;;;;;;;;;;;;15.44;63.99;99883.53;5005603;28;20049;-64
2022/11/04 08:23:55;;;;;;;13.43;2.67;;;;;;;15.78;63.96;99879.81;5005590;28;19928;-64
2022/11/04 08:26:23;;;;;;;13.80;2.45;;;;;;;16.19;62.25;99885.72;4993985;28;20057;-65
2022/11/04 08:28:51;;;;;;;12.18;2.22;;;;;;;15.64;63.09;99882.31;5011681;28;20426;-65
2022/11/04 08:31:25;;;;;;;10.48;1.88;;;;;;;16.01;62.18;99890.13;5010572;28;20046;-64
2022/11/04 08:33:53;;;;;;;8.55;1.95;;;;;;;14.52;64.11;99896.50;5007026;28;20049;-65
2022/11/04 08:36:27;;;;;;;13.95;2.28;;;;;;;14.75;65.94;99899.41;5012175;28;20072;-66
2022/11/04 08:38:55;;;;;;;9.80;2.25;;;;;;;15.50;63.75;99901.47;5002497;28;20050;-66
2022/11/04 08:41:28;;;;;;;10.75;2.33;;;;;;;15.39;62.70;99896.84;5007324;28;20057;-66
2022/11/04 08:43:59;;;;;;;6.60;1.48;;;;;;;15.51;62.72;99910.63;4973666;28;20073;-64
2022/11/04 08:46:41;;;;;;;8.23;1.50;;;;;;;15.52;62.45;99910.25;5011055;28;20060;-65
2022/11/04 08:49:10;;;;;;;8.48;1.55;;;;;;;16.01;60.07;99910.41;4999879;28;20049;-66
2022/11/04 08:51:46;;;;;;;5.78;1.30;;;;;;;16.12;59.85;99921.69;5002901;28;20424;-64
2022/11/04 08:54:13;;;;;;;4.40;1.23;;;;;;;15.58;60.13;99935.75;4990811;28;20065;-64
2022/11/04 08:56:41;;;;;;;5.35;1.48;;;;;;;15.81;60.73;99933.84;5015081;28;20064;-62
2022/11/04 08:59:09;;;;;;;7.38;1.55;;;;;;;16.01;59.80;99949.28;5000471;28;20065;-63
2022/11/04 09:01:37;;;;;;;7.05;1.20;;;;;;;16.28;58.16;99948.22;4997520;28;20045;-63
2022/11/04 09:04:04;;;;;;;8.80;1.98;;;;;;;16.20;58.35;99956.78;4993301;28;20049;-63
2022/11/04 09:06:36;;;;;;;11.55;2.35;;;;;;;16.07;58.59;99961.72;5009931;28;20401;-63
2022/11/04 09:09:07;;;;;;;9.90;1.67;;;;;;;15.28;60.37;99966.00;5016062;28;20520;-62
2022/11/04 09:11:38;;;;;;;9.45;1.83;;;;;;;15.07;62.62;99968.28;5011930;28;20394;-63
2022/11/04 09:14:06;;;;;;;10.65;1.80;;;;;;;15.77;61.09;99960.72;5017159;28;20065;-64
2022/11/04 09:16:34;;;;;;;8.35;1.77;;;;;;;15.39;60.39;99972.59;5013430;28;20050;-64
2022/11/04 09:19:02;;;;;;;8.27;1.92;;;;;;;15.39;61.60;99980.09;5016434;28;20053;-64
2022/11/04 09:21:30;;;;;;;7.88;1.70;;;;;;;14.71;63.54;99988.03;5014218;28;20050;-63
2022/11/04 09:23:57;;;;;;;10.32;1.90;;;;;;;14.38;62.85;99991.13;5012339;28;20040;-65
2022/11/04 09:26:25;;;;;;;5.53;1.10;;;;;;;12.65;68.82;99992.63;4998036;28;20053;-64
2022/11/04 09:28:57;;;;;;;7.70;1.40;;;;;;;13.29;68.52;99998.25;4994548;28;20068;-65
2022/11/04 09:31:27;;;;;;;6.38;1.55;;;;;;;13.51;67.33;100006.06;5010548;28;20050;-63
2022/11/04 09:33:55;;;;;;;7.55;1.95;;;;;;;13.23;68.77;100005.19;5010680;28;20056;-63
2022/11/04 09:36:23;;;;;;;9.73;2.00;;;;;;;13.73;69.17;100004.69;5014471;28;20056;-64
2022/11/04 09:38:50;;;;;;;9.68;2.15;;;;;;;13.76;66.72;100013.09;4988922;28;20501;-63
2022/11/04 09:41:50;;;;;;;11.75;1.95;;;;;;;12.84;69.74;100014.16;5012525;28;20050;-65
2022/11/04 09:44:21;;;;;;;10.73;1.85;;;;;;;12.77;71.31;100023.03;5014461;28;20056;-63
2022/11/04 09:46:52;;;;;;;5.90;1.60;;;;;;;12.17;73.19;100039.47;5013106;28;20057;-63
2022/11/04 09:49:20;;;;;;;10.23;1.55;;;;;;;12.66;71.81;100034.88;4984260;28;20054;-61
2022/11/04 09:51:48;;;;;;;8.68;1.80;;;;;;;12.40;73.00;100046.22;4993957;28;20747;-61
2022/11/04 09:54:41;;;;;;;7.68;1.77;;;;;;;11.60;75.66;100055.06;4994936;28;20062;-62
2022/11/04 09:57:17;;;;;;;4.50;1.27;;;;;;;12.01;74.19;100050.34;4992399;28;20058;-64
2022/11/04 09:59:45;;;;;;;10.10;2.60;;;;;;;12.16;74.31;100058.00;4994108;28;20038;-62
2022/11/04 10:02:15;;;;;;;8.95;1.65;;;;;;;12.79;71.67;100064.13;4993932;28;20046;-63
2022/11/04 10:05:20;;;;;;;10.43;1.60;;;;;;;12.73;74.12;100060.78;4988717;28;20069;-63
2022/11/04 10:07:57;;;;;;;8.00;1.60;;;;;;;12.29;73.59;100084.50;4993925;28;20065;-64
2022/11/04 10:10:48;;;;;;;16.05;1.95;;;;;;;12.07;74.80;100082.13;4991112;28;20065;-63
2022/11/04 10:14:07;;;;;;;9.57;1.92;;;;;;;12.57;72.50;100084.69;4984409;28;20054;-62
2022/11/04 10:16:50;;;;;;;9.20;1.65;;;;;;;11.90;73.64;100098.84;4989706;28;20059;-62
2022/11/04 10:19:34;;;;;;;6.90;1.58;;;;;;;11.81;73.80;100116.59;4986674;28;20046;-62
2022/11/04 10:22:20;;;;;;;10.50;1.77;;;;;;;12.75;74.38;100110.19;4989907;28;20042;-63
2022/11/04 10:24:49;;;;;;;14.18;2.60;;;;;;;12.22;73.37;100122.13;4984530;28;20061;-63
2022/11/04 10:27:28;;;;;;;6.50;1.40;;;;;;;13.19;70.02;100124.00;4977318;28;20062;-62
2022/11/04 10:29:56;;;;;;;7.75;1.40;;;;;;;13.68;70.77;100135.03;4976058;28;20534;-62
2022/11/04 10:32:30;;;;;;;10.70;2.70;;;;;;;12.30;71.42;100149.66;4975260;28;20049;-61
2022/11/04 10:35:21;;;;;;;11.20;2.20;;;;;;;12.03;72.44;100152.16;4993578;28;20050;-63
2022/11/04 10:37:51;;;;;;;12.48;1.90;;;;;;;11.71;72.84;100161.97;4974304;28;20528;-62
2022/11/04 10:40:31;;;;;;;12.50;2.17;;;;;;;11.72;73.50;100171.84;4993218;28;20046;-62
2022/11/04 10:42:59;;;;;;;11.40;2.17;;;;;;;11.71;73.32;100169.41;4977294;28;20062;-62
2022/11/04 10:45:35;;;;;;;11.15;3.38;;;;;;;13.09;72.76;100165.13;4988353;28;20061;-63
2022/11/04 10:48:08;;;;;;;10.38;2.67;;;;;;;13.63;67.32;100165.72;4974614;28;20513;-62
2022/11/04 10:50:49;;;;;;;12.45;2.13;;;;;;;13.39;66.96;100163.75;4975381;28;20454;-62
2022/11/04 10:53:23;;;;;;;9.20;2.05;;;;;;;12.84;68.43;100178.03;5000704;28;20513;-64
2022/11/04 10:56:03;;;;;;;10.10;2.25;;;;;;;12.42;71.44;100187.56;5008638;28;20057;-62
2022/11/04 10:58:34;;;;;;;17.00;2.67;;;;;;;13.72;69.70;100183.00;4972330;28;20055;-63
2022/11/04 11:01:27;;;;;;;10.00;2.47;;;;;;;13.39;67.88;100183.09;4992830;28;20391;-62
2022/11/04 11:03:55;;;;;;;8.23;1.95;;;;;;;13.46;66.13;100184.16;4993907;28;20042;-63
2022/11/04 11:06:28;;;;;;;16.23;2.70;;;;;;;12.91;67.42;100194.88;4998104;28;20049;-61
2022/11/04 11:09:11;;;;;;;14.02;2.22;;;;;;;13.17;68.94;100191.84;5000351;28;20062;-62
2022/11/04 11:11:47;;;;;;;10.30;2.47;;;;;;;13.92;64.18;100193.13;4989274;28;20042;-61
2022/11/04 11:14:16;;;;;;;11.00;2.35;;;;;;;13.09;68.68;100204.59;4982484;28;20053;-62
2022/11/04 11:16:44;;;;;;;9.38;2.30;;;;;;;13.46;68.87;100205.47;4993871;28;20050;-63
2022/11/04 11:19:16;;;;;;;9.27;1.77;;;;;;;13.47;67.35;100210.69;4992619;28;20058;-63
2022/11/04 11:21:49;;;;;;;12.38;2.58;;;;;;;13.10;67.53;100205.44;4984706;28;20512;-63
2022/11/04 11:24:22;;;;;;;10.52;3.95;;;;;;;12.80;67.93;100207.50;4998303;28;20065;-63
2022/11/04 11:26:52;;;;;;;11.05;2.53;;;;;;;13.55;67.76;100215.28;5009472;28;20055;-63
2022/11/04 11:29:27;;;;;;;;;;;;;;;13.22;67.69;100216.50;4975210;28;20050;-62
2022/11/04 11:31:56;;;;;;;10.15;2.10;;;;;;;13.71;64.69;100222.88;4991176;28;19936;-73
2022/11/04 11:34:31;;;;;;;9.82;2.40;;;;;;;13.04;67.88;100213.13;4992608;28;20520;-74
2022/11/04 11:37:04;;;;;;;7.53;1.90;;;;;;;13.26;65.51;100237.63;4995632;28;20465;-72
2022/11/04 11:39:32;;;;;;;8.43;1.60;;;;;;;12.35;68.87;100251.63;4976410;28;20051;-72
2022/11/04 11:42:10;;;;;;;4.93;1.35;;;;;;;12.30;69.74;100240.78;4968437;28;20505;-73
2022/11/04 11:44:46;;;;;;;6.40;1.85;;;;;;;12.37;70.94;100257.63;4991392;28;20127;-63
2022/11/04 11:47:17;;;;;;;8.48;2.25;;;;;;;12.01;74.14;100262.88;4977341;28;20061;-63
2022/11/04 11:49:45;;;;;;;5.07;1.65;;;;;;;12.09;75.32;100263.97;4999789;28;20064;-63
2022/11/04 11:52:26;;;;;;;6.45;2.25;;;;;;;12.15;77.02;100277.25;5004112;28;20545;-64
2022/11/04 11:55:02;;;;;;;7.55;2.90;;;;;;;11.99;78.25;100279.00;4974486;28;20055;-66
2022/11/04 11:57:48;;;;;;;7.82;2.17;;;;;;;11.71;79.42;100286.09;4990429;28;20062;-64
2022/11/04 12:00:43;;;;;;;10.23;2.70;;;;;;;11.61;79.57;100285.63;4992650;28;20734;-67
2022/11/04 12:03:29;;;;;;;9.60;2.35;;;;;;;11.76;78.65;100293.38;4979740;28;20050;-65
2022/11/04 12:06:22;;;;;;;6.30;1.40;;;;;;;11.68;77.66;100308.03;4992495;28;20054;-75
2022/11/04 12:09:15;;;;;;;8.73;2.05;;;;;;;12.44;79.89;100298.50;4991813;28;20223;-73
2022/11/04 12:12:15;;;;;;;7.82;2.08;;;;;;;13.27;74.30;100300.06;4977488;28;20050;-72
2022/11/04 12:15:04;;;;;;;6.78;2.55;;;;;;;12.35;76.17;100309.63;4996534;28;20045;-74
2022/11/04 12:18:04;;;;;;;11.23;2.93;;;;;;;12.95;74.34;100316.63;4998592;28;20054;-66
2022/11/04 12:20:38;;;;;;;22.40;8.00;;;;;;;13.09;73.43;100320.75;4989805;28;20074;-68
2022/11/04 12:23:16;;;;;;;13.52;3.90;;;;;;;12.97;72.24;100328.97;4995275;28;20046;-68